Accueil
METAR-TAF:

METAR-TAF

Aéroports :

Nancy, France

Base aérienne 133 Nancy-Ochey

latitude: 48-35N, longitude: 005-58E, altitude: 336 m

Observation

Le bulletin a été fait il y a 22 minutes, à 09:30 UTC
Vent 13 kt de sud-ouest
Température 22°C
Humidité 60%
Pression 1020 hPa
Visibilité 10 km ou plus
pas de nuages en-dessous de 1500 mètres et pas de cumulonimbus.

METAR: LFSO 170930Z AUTO 23013KT CAVOK 22/14 Q1020 NOSIG

Heure: 11:52 (09:52 UTC)

Prévision

Le bulletin a été fait il y a 1 heure et 52 minutes, à 08:00 UTC
Prévision valable du 17 à 09 UTC au 18 à 09 UTC
Vent 10 kt de ouest/sud-ouest
Visibilité 10 km ou plus
pas de nuages en-dessous de 1500 mètres et pas de cumulonimbus.
A partir de 18 à 0700 UTC
Vent 10 kt de ouest/sud-ouest
Visibilité: 8000 m
Nuages fragmentés à une hauteur de 2000 ft
Ciel couvert à une hauteur de 15000 ft
pluie

TAF: LFSO 170800Z 1709/1809 24010KT CAVOK FM180700 25010KT 8000 RA BKN020 OVC150

Observations et prévisions météorologiques de plus de 4000 aéroports (messages METAR et TAF).

Les stations disponibles sont représentées par des disques jaunes et rouges sur la carte.

Passer la souris dessus pour voir le nom de la station.

Cliquer dessus pour voir les observations et prévisions météorologiques.

Pour changer de carte: cliquez sur les boutons verts avec une croix noire pour zoomer, sur le bouton vert avec un tiret pour effectuer un zoom arrière, ou sur les flèches vertes pour les cartes adjacentes.


METAR-TAF: